Time;durP1;ratioP1;P1;durP2;ratioP2;P2;SDS_P1;SDS_P2;PMS_P1;PMS_P2;Temp;Humidity;BMP_temperature;BMP_pressure;BME280_temperature;BME280_humidity;BME280_pressure;Samples;Min_cycle;Max_cycle;Signal;HPM_P1;HPM_P2
2023/04/28 00:00:17;;;;;;;5.78;4.88;;;;;;;9.04;73.26;101356.84;5070624;28;20048;-36
2023/04/28 00:02:43;;;;;;;6.30;4.78;;;;;;;9.10;73.45;101357.88;5070283;28;20025;-36
2023/04/28 00:05:08;;;;;;;9.38;5.25;;;;;;;9.05;73.87;101346.91;5070267;28;20507;-36
2023/04/28 00:07:33;;;;;;;5.53;4.72;;;;;;;9.00;74.49;101342.13;5069241;28;20104;-36
2023/04/28 00:09:59;;;;;;;5.25;4.53;;;;;;;9.00;74.34;101342.13;5070157;28;20029;-36
2023/04/28 00:12:24;;;;;;;7.33;5.67;;;;;;;8.97;75.89;101340.66;5060372;28;20016;-36
2023/04/28 00:14:50;;;;;;;8.27;4.75;;;;;;;8.97;76.15;101334.44;5056343;28;20478;-36
2023/04/28 00:17:16;;;;;;;5.33;4.83;;;;;;;8.95;76.64;101337.34;5056301;28;20031;-36
2023/04/28 00:19:41;;;;;;;5.75;4.70;;;;;;;8.95;77.48;101337.34;5056192;28;20283;-36
2023/04/28 00:22:06;;;;;;;8.50;5.03;;;;;;;8.96;76.26;101327.38;5056274;28;20029;-36
2023/04/28 00:24:32;;;;;;;7.10;5.30;;;;;;;8.93;78.20;101339.44;5056176;28;20021;-36
2023/04/28 00:26:58;;;;;;;6.60;5.68;;;;;;;8.96;78.75;101336.31;5056899;28;20074;-36
2023/04/28 00:29:23;;;;;;;6.30;5.70;;;;;;;8.92;80.59;101336.94;5056037;28;20020;-36
2023/04/28 00:31:49;;;;;;;10.57;6.03;;;;;;;8.87;81.65;101313.28;5055829;28;20029;-36
2023/04/28 00:34:14;;;;;;;9.25;5.63;;;;;;;8.83;79.89;101297.72;5055966;28;20025;-36
2023/04/28 00:36:40;;;;;;;7.57;5.67;;;;;;;8.84;82.80;101313.72;5056498;28;20017;-36
2023/04/28 00:39:05;;;;;;;7.53;6.27;;;;;;;8.75;84.56;101304.16;5055899;28;20264;-36
2023/04/28 00:41:30;;;;;;;6.60;6.00;;;;;;;8.67;85.49;101297.09;5056404;28;20349;-36
2023/04/28 00:43:56;;;;;;;6.37;5.73;;;;;;;8.66;85.21;101294.63;5056348;28;20025;-36
2023/04/28 00:46:29;;;;;;;8.02;6.35;;;;;;;8.52;85.55;101278.44;5056426;28;20020;-35
2023/04/28 00:48:56;;;;;;;6.85;5.93;;;;;;;8.57;88.09;101296.69;5055951;28;20017;-35
2023/04/28 00:51:21;;;;;;;7.03;5.93;;;;;;;8.60;87.19;101306.25;5056010;28;20090;-35
2023/04/28 00:53:47;;;;;;;7.80;5.47;;;;;;;8.63;87.88;101305.81;5056001;28;20029;-35
2023/04/28 00:56:13;;;;;;;7.18;5.97;;;;;;;8.55;87.86;101298.78;5056199;28;20294;-35
2023/04/28 00:58:39;;;;;;;8.20;5.57;;;;;;;8.51;89.09;101281.34;5055796;28;20029;-35
2023/04/28 01:01:06;;;;;;;9.57;6.22;;;;;;;8.56;90.73;101291.50;5056174;28;20323;-35
2023/04/28 01:03:36;;;;;;;7.70;6.63;;;;;;;8.54;90.62;101285.47;5056260;28;20021;-35
2023/04/28 01:06:03;;;;;;;7.07;5.90;;;;;;;8.54;92.02;101272.00;5056222;28;20017;-35
2023/04/28 01:08:30;;;;;;;7.40;6.15;;;;;;;8.50;90.88;101277.81;5055393;28;20067;-35
2023/04/28 01:10:56;;;;;;;7.88;6.60;;;;;;;8.49;91.18;101278.88;5055400;28;20025;-35
2023/04/28 01:13:21;;;;;;;7.10;6.40;;;;;;;8.42;90.85;101271.81;5055024;28;20223;-36
2023/04/28 01:15:47;;;;;;;6.77;6.07;;;;;;;8.43;91.29;101265.38;5054337;28;20472;-36
2023/04/28 01:18:13;;;;;;;6.90;6.20;;;;;;;8.41;93.89;101265.59;5055171;28;20028;-36
2023/04/28 01:20:39;;;;;;;9.82;6.40;;;;;;;8.39;93.14;101256.84;5055302;28;20499;-35
2023/04/28 01:23:04;;;;;;;7.87;6.07;;;;;;;8.40;92.49;101247.75;5054568;28;20029;-35
2023/04/28 01:25:29;;;;;;;10.00;6.50;;;;;;;8.34;93.34;101236.94;5054868;28;20473;-36
2023/04/28 01:27:55;;;;;;;7.30;6.40;;;;;;;8.31;93.16;101230.09;5054982;28;20513;-35
2023/04/28 01:30:20;;;;;;;8.73;6.18;;;;;;;8.30;94.57;101231.16;5054970;28;20048;-36
2023/04/28 01:32:45;;;;;;;8.13;6.80;;;;;;;8.20;93.34;101230.72;5054462;28;20024;-36
2023/04/28 01:35:11;;;;;;;7.47;6.17;;;;;;;8.28;93.89;101235.91;5054932;28;20078;-36
2023/04/28 01:37:36;;;;;;;10.60;6.83;;;;;;;8.19;94.95;101234.44;5055152;28;20066;-36
2023/04/28 01:40:02;;;;;;;8.20;5.73;;;;;;;8.17;95.42;101221.19;5055067;28;20029;-36
2023/04/28 01:42:27;;;;;;;9.07;6.70;;;;;;;8.18;94.95;101233.59;5054639;28;20017;-36
2023/04/28 01:44:53;;;;;;;10.33;6.67;;;;;;;8.16;94.54;101218.69;5054705;28;20035;-36
2023/04/28 01:47:18;;;;;;;9.70;6.33;;;;;;;8.16;94.28;101216.00;5054667;28;20115;-36
2023/04/28 01:49:46;;;;;;;7.65;6.32;;;;;;;8.18;94.62;101219.31;5055151;28;20021;-37
2023/04/28 01:52:11;;;;;;;7.82;6.20;;;;;;;8.14;94.05;101210.81;5054485;28;20024;-36
2023/04/28 01:54:36;;;;;;;8.70;5.93;;;;;;;8.14;92.89;101209.97;5054799;28;20488;-36
2023/04/28 01:57:02;;;;;;;7.13;6.37;;;;;;;8.15;94.50;101203.53;5054391;28;20036;-36
2023/04/28 01:59:27;;;;;;;9.13;7.05;;;;;;;8.12;94.31;101198.59;5053787;28;20025;-36
2023/04/28 02:01:53;;;;;;;7.27;6.53;;;;;;;8.16;95.02;101195.28;5054940;28;20021;-36
2023/04/28 02:04:18;;;;;;;7.30;6.60;;;;;;;8.15;95.81;101203.53;5054053;28;20473;-36
2023/04/28 02:06:43;;;;;;;9.23;7.03;;;;;;;8.17;96.05;101206.88;5054285;28;20028;-36
2023/04/28 02:09:09;;;;;;;9.93;6.90;;;;;;;8.16;96.71;101213.31;5054450;28;20465;-36
2023/04/28 02:11:34;;;;;;;8.60;6.50;;;;;;;8.16;97.24;101213.31;5054196;28;20029;-35
2023/04/28 02:14:00;;;;;;;10.60;7.00;;;;;;;8.18;97.77;101201.28;5054099;28;20035;-36
2023/04/28 02:16:25;;;;;;;10.23;7.00;;;;;;;8.18;97.15;101197.75;5054115;28;20408;-36
2023/04/28 02:18:50;;;;;;;9.60;6.73;;;;;;;8.19;98.44;101202.09;5054077;28;20017;-36
2023/04/28 02:21:15;;;;;;;7.03;6.33;;;;;;;8.14;98.00;101194.63;5054529;28;20024;-36
2023/04/28 02:23:41;;;;;;;9.43;7.10;;;;;;;8.14;98.90;101178.47;5053928;28;20025;-36
2023/04/28 02:26:07;;;;;;;10.47;7.30;;;;;;;8.13;98.81;101176.00;5053627;28;20051;-36
2023/04/28 02:28:32;;;;;;;8.15;6.80;;;;;;;8.12;99.43;101171.66;5053512;28;20268;-36
2023/04/28 02:31:04;;;;;;;10.23;7.27;;;;;;;8.13;98.78;101162.53;5054397;28;20065;-36
2023/04/28 02:33:30;;;;;;;9.82;7.03;;;;;;;8.10;98.99;101153.00;5054079;28;20720;-36
2023/04/28 02:35:59;;;;;;;10.20;7.05;;;;;;;8.02;98.63;101157.78;5053826;28;20035;-36
2023/04/28 02:38:24;;;;;;;8.35;6.78;;;;;;;7.99;99.50;101145.53;5054013;28;20021;-36
2023/04/28 02:41:07;;;;;;;8.98;7.30;;;;;;;7.91;100.00;101137.69;5053383;28;20082;-36
2023/04/28 02:43:33;;;;;;;7.75;6.93;;;;;;;7.94;100.00;101140.75;5053448;28;20033;-36
2023/04/28 02:45:59;;;;;;;9.07;7.45;;;;;;;7.96;100.00;101135.19;5054484;28;20063;-36
2023/04/28 02:48:25;;;;;;;9.80;7.55;;;;;;;7.94;100.00;101124.59;5053618;28;20017;-36
2023/04/28 02:50:51;;;;;;;8.45;7.53;;;;;;;7.92;100.00;101115.91;5053851;28;20105;-36
2023/04/28 02:53:17;;;;;;;8.32;7.40;;;;;;;7.94;100.00;101111.13;5053560;28;20075;-36
2023/04/28 02:55:43;;;;;;;9.35;7.32;;;;;;;7.97;100.00;101118.81;5053855;28;20503;-36
2023/04/28 02:58:08;;;;;;;9.33;8.03;;;;;;;7.97;100.00;101121.50;5054377;28;20032;-36
2023/04/28 03:00:33;;;;;;;9.70;6.83;;;;;;;7.95;100.00;101110.13;5054458;28;20055;-36
2023/04/28 03:02:59;;;;;;;8.13;7.20;;;;;;;7.98;100.00;101103.47;5053262;28;20377;-36
2023/04/28 03:05:24;;;;;;;9.27;7.57;;;;;;;7.96;100.00;101109.09;5053285;28;20017;-36
2023/04/28 03:07:50;;;;;;;10.80;7.73;;;;;;;7.98;100.00;101111.56;5053943;28;20025;-36
2023/04/28 03:10:15;;;;;;;8.73;7.80;;;;;;;7.95;100.00;101117.34;5053722;28;20110;-36
2023/04/28 03:12:40;;;;;;;10.87;7.93;;;;;;;7.94;100.00;101113.84;5053615;28;20025;-36
2023/04/28 03:15:09;;;;;;;10.80;8.33;;;;;;;7.95;100.00;101109.28;5053702;28;20021;-36
2023/04/28 03:17:37;;;;;;;10.63;7.80;;;;;;;7.97;100.00;101118.00;5053296;28;20091;-36
2023/04/28 03:20:06;;;;;;;8.57;7.57;;;;;;;8.00;100.00;101113.03;5053532;28;20029;-36
2023/04/28 03:22:31;;;;;;;9.00;7.95;;;;;;;8.02;100.00;101104.72;5053191;28;20017;-36
2023/04/28 03:24:57;;;;;;;11.30;8.40;;;;;;;8.04;100.00;101107.22;5053624;28;20519;-36
2023/04/28 03:27:22;;;;;;;12.07;8.43;;;;;;;8.08;100.00;101103.06;5053045;28;20021;-36
2023/04/28 03:29:47;;;;;;;8.77;7.87;;;;;;;8.10;100.00;101103.69;5053573;28;20044;-36
2023/04/28 03:32:13;;;;;;;8.97;7.63;;;;;;;8.11;100.00;101110.75;5053220;28;20056;-36
2023/04/28 03:34:38;;;;;;;11.80;8.70;;;;;;;8.12;100.00;101107.84;5053804;28;20381;-36
2023/04/28 03:37:04;;;;;;;11.90;8.77;;;;;;;8.05;100.00;101088.13;5053208;28;20029;-36
2023/04/28 03:39:29;;;;;;;8.52;7.68;;;;;;;8.16;100.00;101089.41;5053575;28;20017;-36
2023/04/28 03:41:55;;;;;;;10.88;8.80;;;;;;;8.14;100.00;101094.16;5053706;28;20100;-36
2023/04/28 03:44:22;;;;;;;10.47;8.43;;;;;;;8.20;100.00;101091.47;5053650;28;20509;-36
2023/04/28 03:46:47;;;;;;;10.55;8.50;;;;;;;8.12;100.00;101086.28;5054474;28;20267;-36
2023/04/28 03:49:13;;;;;;;12.75;9.32;;;;;;;8.17;100.00;101097.25;5057433;28;20430;-36
2023/04/28 03:51:38;;;;;;;11.97;8.93;;;;;;;8.19;100.00;101080.88;5057430;28;20134;-36
2023/04/28 03:54:03;;;;;;;11.37;8.57;;;;;;;8.19;100.00;101086.25;5056836;28;20044;-36
2023/04/28 03:56:29;;;;;;;9.53;8.20;;;;;;;8.25;100.00;101098.91;5056759;28;20028;-36
2023/04/28 03:58:56;;;;;;;11.00;8.37;;;;;;;8.23;100.00;101092.91;5056746;28;20031;-36
2023/04/28 04:01:22;;;;;;;9.90;8.82;;;;;;;8.25;100.00;101093.53;5056791;28;20045;-36
2023/04/28 04:03:47;;;;;;;15.40;9.73;;;;;;;8.25;100.00;101088.16;5056846;28;20039;-36
2023/04/28 04:06:13;;;;;;;11.60;9.07;;;;;;;8.20;100.00;101080.69;5056549;28;20256;-36
2023/04/28 04:08:39;;;;;;;11.18;9.35;;;;;;;8.16;100.00;101076.75;5056187;28;20321;-36
2023/04/28 04:11:04;;;;;;;11.25;9.05;;;;;;;8.21;100.00;101081.50;5056473;28;20025;-36
2023/04/28 04:13:30;;;;;;;11.57;10.30;;;;;;;8.17;100.00;101077.56;5056495;28;20105;-36
2023/04/28 04:15:55;;;;;;;12.73;10.30;;;;;;;8.15;100.00;101068.84;5056517;28;20053;-36
2023/04/28 04:18:20;;;;;;;10.90;9.77;;;;;;;8.14;100.00;101069.91;5056352;28;20519;-36
2023/04/28 04:20:46;;;;;;;11.70;9.90;;;;;;;8.16;100.00;101068.66;5056543;28;20453;-36
2023/04/28 04:23:11;;;;;;;13.27;9.80;;;;;;;8.09;100.00;101056.22;5056241;28;20476;-36
2023/04/28 04:25:36;;;;;;;12.80;10.10;;;;;;;8.18;100.00;101052.28;5056039;28;20017;-36
2023/04/28 04:28:02;;;;;;;10.40;9.30;;;;;;;8.09;100.00;101051.69;5056188;28;20048;-36
2023/04/28 04:30:27;;;;;;;12.98;9.80;;;;;;;8.16;100.00;101057.06;5056715;28;20031;-36
2023/04/28 04:32:53;;;;;;;10.03;9.13;;;;;;;8.20;100.00;101063.69;5055775;28;20032;-36
2023/04/28 04:35:18;;;;;;;10.80;9.70;;;;;;;8.21;100.00;101065.34;5055745;28;20025;-36
2023/04/28 04:37:43;;;;;;;14.03;9.90;;;;;;;8.25;100.00;101071.97;5056218;28;20029;-36
2023/04/28 04:40:09;;;;;;;14.87;10.03;;;;;;;8.23;100.00;101069.47;5055910;28;20028;-40
2023/04/28 04:42:35;;;;;;;13.40;10.43;;;;;;;8.26;100.00;101068.25;5056195;28;20102;-35
2023/04/28 04:45:00;;;;;;;11.73;10.02;;;;;;;8.25;100.00;101058.50;5056729;28;20075;-36
2023/04/28 04:47:25;;;;;;;11.43;10.33;;;;;;;8.20;100.00;101047.53;5056307;28;20445;-36
2023/04/28 04:49:51;;;;;;;12.17;10.40;;;;;;;8.27;100.00;101048.34;5055783;28;20029;-36
2023/04/28 04:52:17;;;;;;;12.27;10.23;;;;;;;8.27;100.00;101048.34;5055404;28;20033;-36
2023/04/28 04:54:43;;;;;;;12.07;10.85;;;;;;;8.31;100.00;101051.44;5056238;28;20027;-36
2023/04/28 04:57:08;;;;;;;10.80;9.70;;;;;;;8.31;100.00;101040.66;5056491;28;20356;-36
2023/04/28 04:59:33;;;;;;;11.40;10.15;;;;;;;8.34;100.00;101049.13;5055424;28;20263;-36
2023/04/28 05:01:59;;;;;;;12.03;10.33;;;;;;;8.31;100.00;101035.28;5056458;28;20103;-36
2023/04/28 05:04:24;;;;;;;11.50;10.30;;;;;;;8.38;100.00;101050.41;5055536;28;20025;-36
2023/04/28 05:06:50;;;;;;;13.70;11.00;;;;;;;8.40;100.00;101039.44;5055527;28;20416;-36
2023/04/28 05:09:15;;;;;;;11.88;10.52;;;;;;;8.39;100.00;101038.56;5055930;28;20477;-36
2023/04/28 05:11:41;;;;;;;10.82;9.73;;;;;;;8.45;100.00;101043.16;5055084;28;20025;-36
2023/04/28 05:14:06;;;;;;;11.57;10.27;;;;;;;8.43;100.00;101028.22;5056116;28;20070;-36
2023/04/28 05:16:32;;;;;;;13.97;11.00;;;;;;;8.52;100.00;101035.84;5055526;28;20264;-36
2023/04/28 05:18:57;;;;;;;12.20;10.90;;;;;;;8.55;100.00;101023.00;5055749;28;20021;-36
2023/04/28 05:21:22;;;;;;;12.93;9.97;;;;;;;8.51;100.00;101001.84;5055129;28;20680;-36
2023/04/28 05:23:48;;;;;;;15.73;10.77;;;;;;;8.61;100.00;101014.06;5055189;28;20028;-36
2023/04/28 05:26:13;;;;;;;12.30;11.05;;;;;;;8.63;100.00;101009.25;5055661;28;20025;-36
2023/04/28 05:28:40;;;;;;;11.43;10.23;;;;;;;8.66;100.00;101014.25;5054695;28;20114;-36
2023/04/28 05:31:06;;;;;;;13.27;10.80;;;;;;;8.70;100.00;101004.69;5055252;28;20056;-36
2023/04/28 05:33:34;;;;;;;11.20;9.82;;;;;;;8.75;100.00;101015.66;5054615;28;20025;-36
2023/04/28 05:36:00;;;;;;;12.52;10.68;;;;;;;8.74;100.00;101012.13;5055432;28;20104;-36
2023/04/28 05:38:25;;;;;;;11.60;9.27;;;;;;;8.84;100.00;101027.03;5055307;28;20104;-36
2023/04/28 05:40:51;;;;;;;12.15;9.95;;;;;;;8.80;100.00;101021.22;5055072;28;20024;-36
2023/04/28 05:43:16;;;;;;;11.50;9.87;;;;;;;8.87;100.00;101022.00;5054772;28;20510;-36
2023/04/28 05:45:41;;;;;;;11.53;10.13;;;;;;;8.90;100.00;101016.19;5054690;28;20059;-36
2023/04/28 05:48:07;;;;;;;12.77;9.47;;;;;;;8.94;100.00;101012.03;5054686;28;20142;-36
2023/04/28 05:50:32;;;;;;;11.95;9.30;;;;;;;8.99;100.00;101011.38;5054885;28;20057;-36
2023/04/28 05:52:57;;;;;;;11.17;9.93;;;;;;;9.01;100.00;101007.41;5054879;28;20086;-36
2023/04/28 05:55:23;;;;;;;11.43;10.23;;;;;;;9.03;100.00;101013.44;5054491;28;20028;-36
2023/04/28 05:57:48;;;;;;;16.67;10.63;;;;;;;9.08;100.00;101023.56;5054420;28;20031;-36
2023/04/28 06:00:14;;;;;;;15.05;10.23;;;;;;;9.12;100.00;101021.25;5054859;28;20299;-36
2023/04/28 06:02:40;;;;;;;11.43;10.27;;;;;;;9.14;100.00;101022.69;5054889;28;20028;-36
2023/04/28 06:05:06;;;;;;;12.48;10.18;;;;;;;9.17;100.00;101010.63;5055152;28;20013;-36
2023/04/28 06:07:31;;;;;;;12.00;10.32;;;;;;;9.22;100.00;101008.09;5053966;28;20032;-36
2023/04/28 06:09:56;;;;;;;11.27;10.18;;;;;;;9.23;100.00;101009.78;5054009;28;20025;-36
2023/04/28 06:12:22;;;;;;;12.73;9.63;;;;;;;9.22;100.00;101008.97;5053674;28;20025;-36
2023/04/28 06:14:47;;;;;;;11.50;10.30;;;;;;;9.16;100.00;101006.28;5054143;28;20247;-36
2023/04/28 06:17:13;;;;;;;11.80;10.33;;;;;;;9.30;100.00;101021.34;5053896;28;20262;-36
2023/04/28 06:19:38;;;;;;;12.25;10.98;;;;;;;9.33;100.00;101018.22;5053986;28;20032;-36
2023/04/28 06:22:04;;;;;;;13.27;10.97;;;;;;;9.34;100.00;101003.69;5054565;28;20024;-36
2023/04/28 06:24:29;;;;;;;11.73;10.52;;;;;;;9.47;100.00;101016.25;5053987;28;20025;-36
2023/04/28 06:26:55;;;;;;;12.80;10.80;;;;;;;9.52;100.00;101019.94;5053877;28;20024;-36
2023/04/28 06:29:22;;;;;;;12.07;10.55;;;;;;;9.59;100.00;101008.25;5054115;28;20306;-36
2023/04/28 06:31:48;;;;;;;11.65;10.48;;;;;;;9.62;100.00;101005.97;5054419;28;20409;-36
2023/04/28 06:34:13;;;;;;;11.07;9.93;;;;;;;9.60;100.00;100999.09;5053491;28;20036;-36
2023/04/28 06:36:38;;;;;;;11.00;9.87;;;;;;;9.69;100.00;101024.78;5054103;28;20508;-36
2023/04/28 06:39:04;;;;;;;10.80;9.70;;;;;;;9.70;100.00;101012.94;5053686;28;20313;-36
2023/04/28 06:41:30;;;;;;;10.48;9.55;;;;;;;9.72;100.00;101018.97;5053294;28;20021;-36
2023/04/28 06:43:55;;;;;;;;;;;;;;;9.78;100.00;101028.88;5053797;28;20484;-36
2023/04/28 06:46:21;;;;;;;12.83;9.03;;;;;;;9.79;100.00;101030.50;5053726;28;19904;-36
2023/04/28 06:48:46;;;;;;;12.00;9.23;;;;;;;9.74;100.00;101014.16;5053680;28;20786;-36
2023/04/28 06:51:12;;;;;;;14.10;9.80;;;;;;;9.78;100.00;101012.66;5054497;28;20074;-41
2023/04/28 06:53:37;;;;;;;;;;;;;;;9.83;100.00;101020.09;5054513;28;20013;-36
2023/04/28 06:56:03;;;;;;;10.60;9.60;;;;;;;9.80;100.00;101011.38;5053889;28;20394;-36
2023/04/28 06:58:28;;;;;;;10.93;9.82;;;;;;;9.83;100.00;100999.31;5054330;28;20020;-36
2023/04/28 07:00:54;;;;;;;11.93;9.27;;;;;;;9.92;100.00;100999.88;5053838;28;20139;-36
2023/04/28 07:03:19;;;;;;;11.55;10.02;;;;;;;9.98;100.00;101005.19;5053110;28;20263;-36
2023/04/28 07:05:45;;;;;;;11.70;9.60;;;;;;;10.01;100.00;100999.34;5054066;28;20024;-36
2023/04/28 07:08:10;;;;;;;11.32;10.15;;;;;;;10.06;100.00;100999.50;5053724;28;20025;-36
2023/04/28 07:10:35;;;;;;;12.95;10.70;;;;;;;10.11;100.00;100992.63;5053696;28;20083;-36
2023/04/28 07:13:01;;;;;;;10.97;9.57;;;;;;;10.15;100.00;100991.09;5053410;28;20043;-36
2023/04/28 07:15:27;;;;;;;10.50;9.40;;;;;;;10.19;100.00;100986.91;5053112;28;20453;-36
2023/04/28 07:17:52;;;;;;;11.23;10.15;;;;;;;10.24;100.00;100987.91;5054147;28;20298;-36
2023/04/28 07:20:18;;;;;;;11.17;10.07;;;;;;;10.27;100.00;100987.47;5053334;28;20024;-36
2023/04/28 07:22:43;;;;;;;10.93;9.70;;;;;;;10.31;100.00;100985.97;5056289;28;20270;-36
2023/04/28 07:25:08;;;;;;;11.83;9.77;;;;;;;10.36;100.00;100984.47;5057441;28;20091;-36
2023/04/28 07:27:34;;;;;;;12.27;9.82;;;;;;;10.38;100.00;100991.28;5057512;28;20120;-36
2023/04/28 07:29:59;;;;;;;10.63;9.53;;;;;;;10.43;100.00;100975.22;5057602;28;20033;-36
2023/04/28 07:32:25;;;;;;;12.23;10.30;;;;;;;10.53;100.00;100980.91;5057737;28;20056;-36
2023/04/28 07:34:50;;;;;;;13.73;10.18;;;;;;;10.60;100.00;100994.34;5056902;28;20029;-36
2023/04/28 07:37:17;;;;;;;10.75;9.15;;;;;;;10.64;100.00;100989.28;5057033;28;20457;-36
2023/04/28 07:39:43;;;;;;;11.77;9.95;;;;;;;10.63;100.00;100990.34;5055741;28;20040;-36
2023/04/28 07:42:09;;;;;;;12.43;11.13;;;;;;;10.61;100.00;100990.59;5056993;28;20021;-36
2023/04/28 07:44:34;;;;;;;12.45;11.15;;;;;;;10.60;100.00;100993.53;5057040;28;20051;-36
2023/04/28 07:47:01;;;;;;;13.65;10.73;;;;;;;10.64;100.00;101010.94;5057489;28;20029;-36
2023/04/28 07:49:30;;;;;;;11.75;10.57;;;;;;;10.57;100.00;101002.91;5056876;28;20040;-36
2023/04/28 07:51:56;;;;;;;11.13;9.95;;;;;;;10.68;100.00;101004.84;5057133;28;20021;-37
2023/04/28 07:54:21;;;;;;;11.27;10.27;;;;;;;10.75;100.00;101008.31;5056485;28;20515;-37
2023/04/28 07:56:47;;;;;;;12.38;11.05;;;;;;;10.77;100.00;101005.34;5056809;28;20036;-36
2023/04/28 07:59:13;;;;;;;11.60;10.43;;;;;;;10.81;100.00;101006.56;5057215;28;20047;-36
2023/04/28 08:01:38;;;;;;;11.10;9.93;;;;;;;10.85;100.00;101010.47;5057147;28;20303;-37
2023/04/28 08:04:04;;;;;;;11.88;10.57;;;;;;;10.86;100.00;100993.16;5057458;28;20025;-36
2023/04/28 08:06:29;;;;;;;11.40;9.80;;;;;;;10.97;100.00;101008.63;5056574;28;20104;-37
2023/04/28 08:08:54;;;;;;;12.45;10.82;;;;;;;11.00;100.00;101010.88;5056563;28;20024;-37
2023/04/28 08:11:21;;;;;;;11.45;10.35;;;;;;;11.03;100.00;101005.00;5057138;28;20104;-37
2023/04/28 08:13:47;;;;;;;12.55;10.15;;;;;;;11.00;100.00;101004.63;5056688;28;20471;-36
2023/04/28 08:16:13;;;;;;;11.13;10.13;;;;;;;11.06;100.00;101003.72;5056718;28;20408;-37
2023/04/28 08:18:39;;;;;;;11.20;10.10;;;;;;;11.09;100.00;101006.78;5056066;28;20028;-36
2023/04/28 08:21:05;;;;;;;14.30;10.65;;;;;;;11.14;100.00;101005.28;5056289;28;20025;-36
2023/04/28 08:23:30;;;;;;;11.98;10.85;;;;;;;11.10;100.00;100980.56;5056309;28;20029;-37
2023/04/28 08:25:56;;;;;;;11.88;10.52;;;;;;;11.17;100.00;100988.56;5056828;28;20070;-37
2023/04/28 08:28:22;;;;;;;13.07;10.63;;;;;;;11.17;100.00;101002.09;5056106;28;20052;-37
2023/04/28 08:30:47;;;;;;;11.70;10.57;;;;;;;11.18;100.00;101003.78;5056145;28;20025;-37
2023/04/28 08:33:12;;;;;;;11.55;10.43;;;;;;;11.17;100.00;100992.09;5055641;28;20025;-37
2023/04/28 08:35:38;;;;;;;10.90;9.80;;;;;;;11.28;100.00;101004.03;5056374;28;20081;-37
2023/04/28 08:38:04;;;;;;;11.50;10.40;;;;;;;11.32;100.00;101002.47;5055663;28;20060;-37
2023/04/28 08:40:30;;;;;;;11.80;10.30;;;;;;;11.28;100.00;100995.91;5055800;28;20027;-37
2023/04/28 08:42:56;;;;;;;12.30;11.10;;;;;;;11.35;100.00;101008.28;5055905;28;20100;-37
2023/04/28 08:45:23;;;;;;;11.07;9.93;;;;;;;11.35;100.00;101002.03;5056168;28;20103;-36
2023/04/28 08:47:50;;;;;;;11.30;10.30;;;;;;;11.38;100.00;101004.28;5055544;28;20383;-36
2023/04/28 08:50:21;;;;;;;12.10;10.90;;;;;;;11.39;100.00;100997.00;5055781;28;20033;-37
2023/04/28 08:52:47;;;;;;;12.45;11.27;;;;;;;11.45;100.00;100991.44;5055740;28;20024;-36
2023/04/28 08:55:13;;;;;;;10.68;9.68;;;;;;;11.47;100.00;100997.47;5055692;28;20024;-36
2023/04/28 08:57:53;;;;;;;12.57;11.38;;;;;;;11.48;100.00;101004.53;5055881;28;20063;-36
2023/04/28 09:00:19;;;;;;;12.15;10.95;;;;;;;11.51;100.00;101009.47;5056068;28;20051;-36
2023/04/28 09:02:44;;;;;;;12.45;11.27;;;;;;;11.54;100.00;101010.91;5055595;28;20412;-36
2023/04/28 09:05:12;;;;;;;13.13;11.83;;;;;;;11.56;100.00;101012.31;5055622;28;20031;-36
2023/04/28 09:07:37;;;;;;;12.48;11.15;;;;;;;11.59;100.00;101003.72;5055149;28;20433;-37
2023/04/28 09:10:22;;;;;;;14.18;12.88;;;;;;;11.62;100.00;101001.63;5055737;28;20090;-37
2023/04/28 09:12:51;;;;;;;14.55;13.05;;;;;;;11.59;100.00;100992.88;5055396;28;20024;-36
2023/04/28 09:15:28;;;;;;;12.75;11.45;;;;;;;11.60;100.00;100993.72;5055624;28;20025;-37
2023/04/28 09:17:54;;;;;;;12.80;11.60;;;;;;;11.64;100.00;101002.19;5055254;28;20369;-37
2023/04/28 09:20:23;;;;;;;15.30;13.80;;;;;;;11.76;100.00;101003.03;5054891;28;20025;-36
2023/04/28 09:22:51;;;;;;;15.00;13.50;;;;;;;11.87;100.00;100999.53;5055152;28;20028;-36
2023/04/28 09:25:18;;;;;;;14.27;12.88;;;;;;;11.93;100.00;101001.31;5055756;28;20048;-37
2023/04/28 09:27:43;;;;;;;14.00;12.70;;;;;;;11.95;100.00;101003.75;5055028;28;20029;-36
2023/04/28 09:30:09;;;;;;;14.90;13.40;;;;;;;11.97;100.00;101007.91;5055301;28;20033;-36
2023/04/28 09:32:35;;;;;;;14.40;13.10;;;;;;;11.99;100.00;101003.06;5055241;28;20047;-36
2023/04/28 09:35:01;;;;;;;14.20;12.95;;;;;;;11.97;100.00;101002.47;5055251;28;20082;-36
2023/04/28 09:37:29;;;;;;;14.73;13.20;;;;;;;11.95;100.00;101004.59;5055715;28;20353;-37
2023/04/28 09:39:55;;;;;;;14.27;12.90;;;;;;;11.98;100.00;101000.59;5054818;28;20025;-36
2023/04/28 09:42:33;;;;;;;14.48;13.07;;;;;;;12.02;100.00;101002.59;5054732;28;20449;-36
2023/04/28 09:45:01;;;;;;;14.70;13.20;;;;;;;11.94;100.00;100983.16;5054385;28;20396;-36
2023/04/28 09:47:27;;;;;;;14.38;12.98;;;;;;;12.07;100.00;100996.47;5054982;28;20025;-36
2023/04/28 09:49:57;;;;;;;;;;;;;;;12.13;100.00;100997.41;5055893;28;20105;-36
2023/04/28 09:52:23;;;;;;;13.30;11.95;;;;;;;12.13;100.00;101000.09;5054867;28;19911;-36
2023/04/28 09:54:50;;;;;;;14.77;13.38;;;;;;;12.18;100.00;101000.22;5054535;28;20055;-37
2023/04/28 09:57:17;;;;;;;15.18;13.68;;;;;;;12.23;100.00;101001.16;5054791;28;20036;-36
2023/04/28 09:59:47;;;;;;;14.95;13.55;;;;;;;12.32;100.00;101004.31;5055152;28;20096;-36
2023/04/28 10:02:16;;;;;;;15.63;14.15;;;;;;;12.36;100.00;101002.78;5055102;28;20055;-36
2023/04/28 10:04:44;;;;;;;15.32;13.82;;;;;;;12.40;100.00;100998.53;5054275;28;20016;-36
2023/04/28 10:07:15;;;;;;;15.13;13.73;;;;;;;12.46;100.00;101003.00;5054808;28;20017;-37
2023/04/28 10:09:47;;;;;;;16.05;14.40;;;;;;;12.48;100.00;100998.16;5054501;28;20021;-37
2023/04/28 10:12:13;;;;;;;16.45;14.85;;;;;;;12.54;100.00;100997.22;5054513;28;20369;-36
2023/04/28 10:14:41;;;;;;;17.02;15.30;;;;;;;12.57;100.00;100999.44;5054124;28;20032;-37
2023/04/28 10:17:06;;;;;;;15.80;14.30;;;;;;;12.59;100.00;100991.88;5054222;28;20059;-36
2023/04/28 10:19:33;;;;;;;15.48;13.95;;;;;;;12.60;100.00;100988.09;5054640;28;20330;-37
2023/04/28 10:22:10;;;;;;;15.00;13.65;;;;;;;12.54;100.00;100983.66;5054836;28;20082;-36
2023/04/28 10:24:51;;;;;;;16.00;14.43;;;;;;;12.66;100.00;100985.50;5054337;28;20417;-36
2023/04/28 10:27:18;;;;;;;17.08;14.77;;;;;;;12.63;100.00;100987.59;5054281;28;20079;-37
2023/04/28 10:29:44;;;;;;;15.50;14.05;;;;;;;12.69;100.00;100993.97;5054008;28;20408;-37
2023/04/28 10:32:19;;;;;;;15.05;13.65;;;;;;;12.75;100.00;101001.16;5053671;28;20029;-37
2023/04/28 10:34:46;;;;;;;14.70;13.30;;;;;;;12.71;100.00;100991.03;5054691;28;20020;-37
2023/04/28 10:37:13;;;;;;;16.42;14.70;;;;;;;12.81;100.00;101005.59;5053863;28;20052;-37
2023/04/28 10:39:39;;;;;;;16.17;14.63;;;;;;;12.75;100.00;100989.47;5053745;28;20067;-36
2023/04/28 10:42:43;;;;;;;16.85;15.20;;;;;;;12.81;100.00;100993.94;5053724;28;20467;-37
2023/04/28 10:45:08;;;;;;;15.73;14.32;;;;;;;12.82;100.00;101001.81;5053649;28;20037;-36
2023/04/28 10:48:04;;;;;;;16.58;15.05;;;;;;;12.83;100.00;100999.94;5054628;28;20025;-37
2023/04/28 10:50:30;;;;;;;18.90;16.95;;;;;;;12.75;100.00;100982.16;5053973;28;20052;-36
2023/04/28 10:52:56;;;;;;;18.42;16.52;;;;;;;12.84;100.00;100993.44;5053257;28;20457;-37
2023/04/28 10:55:30;;;;;;;19.27;17.23;;;;;;;12.88;100.00;100995.44;5053816;28;20021;-36
2023/04/28 10:58:13;;;;;;;21.90;19.65;;;;;;;12.95;100.00;100986.31;5053488;28;20013;-36
2023/04/28 11:00:39;;;;;;;22.08;19.60;;;;;;;12.94;100.00;100977.34;5053767;28;20045;-37
2023/04/28 11:03:05;;;;;;;25.52;22.77;;;;;;;13.05;100.00;100989.22;5053545;28;20078;-37
2023/04/28 11:05:32;;;;;;;25.52;22.98;;;;;;;13.09;100.00;100984.97;5054375;28;20047;-36
2023/04/28 11:08:29;;;;;;;23.42;21.20;;;;;;;13.16;100.00;100982.91;5053190;28;20021;-37
2023/04/28 11:11:13;;;;;;;24.17;21.83;;;;;;;13.21;100.00;100988.41;5045992;28;20063;-37